sensor_id;sensor_type;location;lat;lon;timestamp;pressure;altitude;pressure_sealevel;temperature;humidity
50933;BME280;36921;49.006;9.292;2023-04-09T00:01:39;99523.69;;;3.95;100.00
50933;BME280;36921;49.006;9.292;2023-04-09T00:04:05;99497.09;;;3.84;100.00
50933;BME280;36921;49.006;9.292;2023-04-09T00:06:30;99502.44;;;3.93;100.00
50933;BME280;36921;49.006;9.292;2023-04-09T00:08:56;99515.94;;;3.92;100.00
50933;BME280;36921;49.006;9.292;2023-04-09T00:11:21;99507.50;;;3.97;100.00
50933;BME280;36921;49.006;9.292;2023-04-09T00:13:46;99500.31;;;3.87;100.00
50933;BME280;36921;49.006;9.292;2023-04-09T00:16:12;99514.41;;;3.89;100.00
50933;BME280;36921;49.006;9.292;2023-04-09T00:18:37;99487.81;;;3.68;100.00
50933;BME280;36921;49.006;9.292;2023-04-09T00:21:02;99502.84;;;3.79;100.00
50933;BME280;36921;49.006;9.292;2023-04-09T00:23:28;99496.66;;;3.79;100.00
50933;BME280;36921;49.006;9.292;2023-04-09T00:25:53;99502.16;;;3.87;100.00
50933;BME280;36921;49.006;9.292;2023-04-09T00:28:18;99480.31;;;3.82;100.00
50933;BME280;36921;49.006;9.292;2023-04-09T00:30:44;99500.72;;;4.02;100.00
50933;BME280;36921;49.006;9.292;2023-04-09T00:33:09;99505.47;;;4.08;100.00
50933;BME280;36921;49.006;9.292;2023-04-09T00:35:34;99488.16;;;4.03;100.00
50933;BME280;36921;49.006;9.292;2023-04-09T00:38:00;99485.03;;;4.17;100.00
50933;BME280;36921;49.006;9.292;2023-04-09T00:40:25;99464.75;;;4.14;100.00
50933;BME280;36921;49.006;9.292;2023-04-09T00:42:51;99489.63;;;4.34;100.00
50933;BME280;36921;49.006;9.292;2023-04-09T00:45:16;99479.63;;;4.27;100.00
50933;BME280;36921;49.006;9.292;2023-04-09T00:47:41;99487.50;;;4.38;100.00
50933;BME280;36921;49.006;9.292;2023-04-09T00:50:09;99494.84;;;4.36;100.00
50933;BME280;36921;49.006;9.292;2023-04-09T00:52:35;99486.25;;;4.32;100.00
50933;BME280;36921;49.006;9.292;2023-04-09T00:55:03;99457.13;;;4.20;100.00
50933;BME280;36921;49.006;9.292;2023-04-09T00:57:28;99484.44;;;4.33;100.00
50933;BME280;36921;49.006;9.292;2023-04-09T00:59:54;99495.94;;;4.43;100.00
50933;BME280;36921;49.006;9.292;2023-04-09T01:02:20;99451.06;;;4.17;100.00
50933;BME280;36921;49.006;9.292;2023-04-09T01:04:45;99455.72;;;4.15;100.00
50933;BME280;36921;49.006;9.292;2023-04-09T01:12:47;99494.03;;;4.26;100.00
50933;BME280;36921;49.006;9.292;2023-04-09T01:15:28;99477.13;;;4.15;100.00
50933;BME280;36921;49.006;9.292;2023-04-09T01:18:00;99486.72;;;4.18;100.00
50933;BME280;36921;49.006;9.292;2023-04-09T01:20:50;99475.47;;;4.14;100.00
50933;BME280;36921;49.006;9.292;2023-04-09T01:23:31;99471.81;;;4.06;100.00
50933;BME280;36921;49.006;9.292;2023-04-09T01:26:20;99492.78;;;4.20;100.00
50933;BME280;36921;49.006;9.292;2023-04-09T01:28:50;99476.44;;;4.13;100.00
50933;BME280;36921;49.006;9.292;2023-04-09T01:31:17;99474.06;;;4.10;100.00
50933;BME280;36921;49.006;9.292;2023-04-09T01:33:44;99468.81;;;4.18;100.00
50933;BME280;36921;49.006;9.292;2023-04-09T01:36:10;99481.28;;;4.37;100.00
50933;BME280;36921;49.006;9.292;2023-04-09T01:38:40;99474.78;;;4.40;100.00
50933;BME280;36921;49.006;9.292;2023-04-09T01:41:09;99460.72;;;4.38;100.00
50933;BME280;36921;49.006;9.292;2023-04-09T01:43:36;99464.06;;;4.40;100.00
50933;BME280;36921;49.006;9.292;2023-04-09T01:46:01;99463.13;;;4.31;100.00
50933;BME280;36921;49.006;9.292;2023-04-09T01:48:29;99478.91;;;4.34;100.00
50933;BME280;36921;49.006;9.292;2023-04-09T01:50:56;99491.56;;;4.42;100.00
50933;BME280;36921;49.006;9.292;2023-04-09T01:53:21;99474.56;;;4.24;100.00
50933;BME280;36921;49.006;9.292;2023-04-09T01:55:47;99476.84;;;4.18;100.00
50933;BME280;36921;49.006;9.292;2023-04-09T01:58:12;99457.16;;;4.00;100.00
50933;BME280;36921;49.006;9.292;2023-04-09T02:00:39;99497.13;;;4.21;100.00
50933;BME280;36921;49.006;9.292;2023-04-09T02:06:00;99444.06;;;3.97;100.00
50933;BME280;36921;49.006;9.292;2023-04-09T02:08:29;99491.47;;;4.34;100.00
50933;BME280;36921;49.006;9.292;2023-04-09T02:10:57;99497.66;;;4.34;100.00
50933;BME280;36921;49.006;9.292;2023-04-09T02:13:25;99501.03;;;4.36;100.00
50933;BME280;36921;49.006;9.292;2023-04-09T02:15:51;99501.03;;;4.36;100.00
50933;BME280;36921;49.006;9.292;2023-04-09T02:18:25;99469.81;;;4.17;100.00
50933;BME280;36921;49.006;9.292;2023-04-09T02:20:55;99478.97;;;4.25;100.00
50933;BME280;36921;49.006;9.292;2023-04-09T02:23:21;99491.47;;;4.34;100.00
50933;BME280;36921;49.006;9.292;2023-04-09T02:25:46;99478.66;;;4.28;100.00
50933;BME280;36921;49.006;9.292;2023-04-09T02:28:11;99475.97;;;4.28;100.00
50933;BME280;36921;49.006;9.292;2023-04-09T02:30:37;99411.53;;;3.92;100.00
50933;BME280;36921;49.006;9.292;2023-04-09T02:33:02;99484.09;;;4.46;100.00
50933;BME280;36921;49.006;9.292;2023-04-09T02:35:27;99452.59;;;4.30;100.00
50933;BME280;36921;49.006;9.292;2023-04-09T02:37:53;99466.63;;;4.42;100.00
50933;BME280;36921;49.006;9.292;2023-04-09T02:40:18;99458.34;;;4.35;100.00
50933;BME280;36921;49.006;9.292;2023-04-09T02:42:43;99491.41;;;4.53;100.00
50933;BME280;36921;49.006;9.292;2023-04-09T02:45:09;99491.53;;;4.52;100.00
50933;BME280;36921;49.006;9.292;2023-04-09T02:47:34;99468.03;;;4.46;100.00
50933;BME280;36921;49.006;9.292;2023-04-09T02:49:59;99487.19;;;4.51;100.00
50933;BME280;36921;49.006;9.292;2023-04-09T02:52:25;99454.38;;;4.29;100.00
50933;BME280;36921;49.006;9.292;2023-04-09T02:54:51;99486.31;;;4.50;100.00
50933;BME280;36921;49.006;9.292;2023-04-09T02:57:17;99486.03;;;4.53;100.00
50933;BME280;36921;49.006;9.292;2023-04-09T02:59:43;99492.06;;;4.55;100.00
50933;BME280;36921;49.006;9.292;2023-04-09T03:02:09;99479.13;;;4.51;100.00
50933;BME280;36921;49.006;9.292;2023-04-09T03:04:34;99475.88;;;4.47;100.00
50933;BME280;36921;49.006;9.292;2023-04-09T03:07:00;99458.34;;;4.35;100.00
50933;BME280;36921;49.006;9.292;2023-04-09T03:09:25;99459.38;;;4.52;100.00
50933;BME280;36921;49.006;9.292;2023-04-09T03:11:50;99429.31;;;4.30;100.00
50933;BME280;36921;49.006;9.292;2023-04-09T03:14:15;99477.00;;;4.54;100.00
50933;BME280;36921;49.006;9.292;2023-04-09T03:16:41;99470.94;;;4.52;100.00
50933;BME280;36921;49.006;9.292;2023-04-09T03:19:06;99458.94;;;4.56;100.00
50933;BME280;36921;49.006;9.292;2023-04-09T03:21:31;99451.44;;;4.60;100.00
50933;BME280;36921;49.006;9.292;2023-04-09T03:23:57;99452.75;;;4.56;100.00
50933;BME280;36921;49.006;9.292;2023-04-09T03:26:22;99459.75;;;4.67;100.00
50933;BME280;36921;49.006;9.292;2023-04-09T03:28:47;99446.06;;;4.60;100.00
50933;BME280;36921;49.006;9.292;2023-04-09T03:31:13;99459.25;;;4.53;100.00
50933;BME280;36921;49.006;9.292;2023-04-09T03:33:38;99439.69;;;4.43;100.00
50933;BME280;36921;49.006;9.292;2023-04-09T03:36:04;99435.38;;;4.32;100.00
50933;BME280;36921;49.006;9.292;2023-04-09T03:38:29;99474.63;;;4.51;100.00
50933;BME280;36921;49.006;9.292;2023-04-09T03:40:55;99477.31;;;4.51;100.00
50933;BME280;36921;49.006;9.292;2023-04-09T03:43:20;99472.06;;;4.50;100.00
50933;BME280;36921;49.006;9.292;2023-04-09T03:45:46;99474.91;;;4.48;100.00
50933;BME280;36921;49.006;9.292;2023-04-09T03:48:11;99474.75;;;4.50;100.00
50933;BME280;36921;49.006;9.292;2023-04-09T03:50:38;99473.06;;;4.49;100.00
50933;BME280;36921;49.006;9.292;2023-04-09T03:53:04;99474.91;;;4.48;100.00
50933;BME280;36921;49.006;9.292;2023-04-09T03:55:30;99473.91;;;4.49;100.00
50933;BME280;36921;49.006;9.292;2023-04-09T03:57:55;99471.94;;;4.51;100.00
50933;BME280;36921;49.006;9.292;2023-04-09T04:00:20;99480.81;;;4.52;100.00
50933;BME280;36921;49.006;9.292;2023-04-09T04:02:46;99476.00;;;4.55;100.00
50933;BME280;36921;49.006;9.292;2023-04-09T04:05:12;99474.19;;;4.56;100.00
50933;BME280;36921;49.006;9.292;2023-04-09T04:07:37;99471.03;;;4.60;100.00
50933;BME280;36921;49.006;9.292;2023-04-09T04:10:05;99468.22;;;4.62;100.00
50933;BME280;36921;49.006;9.292;2023-04-09T04:12:30;99468.06;;;4.64;100.00
50933;BME280;36921;49.006;9.292;2023-04-09T04:14:57;99474.09;;;4.66;100.00
50933;BME280;36921;49.006;9.292;2023-04-09T04:17:22;99470.47;;;4.67;100.00
50933;BME280;36921;49.006;9.292;2023-04-09T04:19:47;99474.09;;;4.66;100.00
50933;BME280;36921;49.006;9.292;2023-04-09T04:22:13;99473.13;;;4.67;100.00
50933;BME280;36921;49.006;9.292;2023-04-09T04:24:38;99485.13;;;4.63;100.00
50933;BME280;36921;49.006;9.292;2023-04-09T04:27:04;99478.09;;;4.61;100.00
50933;BME280;36921;49.006;9.292;2023-04-09T04:29:29;99484.00;;;4.65;100.00
50933;BME280;36921;49.006;9.292;2023-04-09T04:31:54;99489.34;;;4.65;100.00
50933;BME280;36921;49.006;9.292;2023-04-09T04:34:20;99486.13;;;4.61;100.00
50933;BME280;36921;49.006;9.292;2023-04-09T04:36:45;99487.94;;;4.61;100.00
50933;BME280;36921;49.006;9.292;2023-04-09T04:39:10;99494.28;;;4.70;100.00
50933;BME280;36921;49.006;9.292;2023-04-09T04:41:37;99492.44;;;4.70;100.00
50933;BME280;36921;49.006;9.292;2023-04-09T04:44:02;99494.72;;;4.65;100.00
50933;BME280;36921;49.006;9.292;2023-04-09T04:46:29;99500.91;;;4.66;100.00
50933;BME280;36921;49.006;9.292;2023-04-09T04:48:54;99491.72;;;4.68;100.00
50933;BME280;36921;49.006;9.292;2023-04-09T04:51:20;99500.03;;;4.75;100.00
50933;BME280;36921;49.006;9.292;2023-04-09T04:53:45;99485.78;;;4.74;100.00
50933;BME280;36921;49.006;9.292;2023-04-09T04:56:15;99498.06;;;4.77;100.00
50933;BME280;36921;49.006;9.292;2023-04-09T04:58:41;99498.19;;;4.75;100.00
50933;BME280;36921;49.006;9.292;2023-04-09T05:01:07;99499.03;;;4.76;100.00
50933;BME280;36921;49.006;9.292;2023-04-09T05:03:32;99485.63;;;4.76;100.00
50933;BME280;36921;49.006;9.292;2023-04-09T05:05:57;99496.44;;;4.84;100.00
50933;BME280;36921;49.006;9.292;2023-04-09T05:08:23;99494.59;;;4.84;100.00
50933;BME280;36921;49.006;9.292;2023-04-09T05:10:49;99497.28;;;4.84;100.00
50933;BME280;36921;49.006;9.292;2023-04-09T05:13:15;99498.94;;;4.95;100.00
50933;BME280;36921;49.006;9.292;2023-04-09T05:15:45;99494.72;;;4.93;100.00
50933;BME280;36921;49.006;9.292;2023-04-09T05:18:10;99493.28;;;4.98;100.00
50933;BME280;36921;49.006;9.292;2023-04-09T05:20:35;99493.66;;;5.03;100.00
50933;BME280;36921;49.006;9.292;2023-04-09T05:23:01;99497.56;;;5.09;100.00
50933;BME280;36921;49.006;9.292;2023-04-09T05:25:27;99500.47;;;5.16;100.00
50933;BME280;36921;49.006;9.292;2023-04-09T05:27:52;99499.91;;;5.22;100.00
50933;BME280;36921;49.006;9.292;2023-04-09T05:30:17;99497.81;;;5.34;100.00
50933;BME280;36921;49.006;9.292;2023-04-09T05:32:43;99498.22;;;5.39;100.00
50933;BME280;36921;49.006;9.292;2023-04-09T05:35:08;99500.75;;;5.58;100.00
50933;BME280;36921;49.006;9.292;2023-04-09T05:37:34;99498.59;;;5.62;100.00
50933;BME280;36921;49.006;9.292;2023-04-09T05:39:59;99500.66;;;5.68;100.00
50933;BME280;36921;49.006;9.292;2023-04-09T05:42:25;99498.34;;;5.73;100.00
50933;BME280;36921;49.006;9.292;2023-04-09T05:44:50;99497.09;;;5.85;100.00
50933;BME280;36921;49.006;9.292;2023-04-09T05:47:16;99494.78;;;5.90;100.00
50933;BME280;36921;49.006;9.292;2023-04-09T05:49:42;99498.47;;;6.07;100.00
50933;BME280;36921;49.006;9.292;2023-04-09T05:52:08;99500.03;;;6.18;100.00
50933;BME280;36921;49.006;9.292;2023-04-09T05:54:34;99485.06;;;6.42;100.00
50933;BME280;36921;49.006;9.292;2023-04-09T05:56:59;99484.84;;;6.61;100.00
50933;BME280;36921;49.006;9.292;2023-04-09T05:59:25;99485.13;;;6.84;100.00
50933;BME280;36921;49.006;9.292;2023-04-09T06:01:51;99480.47;;;7.02;100.00
50933;BME280;36921;49.006;9.292;2023-04-09T06:04:16;99486.34;;;7.06;100.00
50933;BME280;36921;49.006;9.292;2023-04-09T06:06:42;99481.44;;;7.01;100.00
50933;BME280;36921;49.006;9.292;2023-04-09T06:09:07;99489.06;;;7.31;100.00
50933;BME280;36921;49.006;9.292;2023-04-09T06:11:33;99495.84;;;7.43;100.00
50933;BME280;36921;49.006;9.292;2023-04-09T06:13:58;99484.44;;;7.65;100.00
50933;BME280;36921;49.006;9.292;2023-04-09T06:16:24;99490.81;;;7.97;100.00
50933;BME280;36921;49.006;9.292;2023-04-09T06:18:49;99482.00;;;8.36;100.00
50933;BME280;36921;49.006;9.292;2023-04-09T06:21:19;99481.00;;;8.85;100.00
50933;BME280;36921;49.006;9.292;2023-04-09T06:23:44;99481.69;;;9.18;100.00
50933;BME280;36921;49.006;9.292;2023-04-09T06:26:09;99484.88;;;10.28;100.00
50933;BME280;36921;49.006;9.292;2023-04-09T06:28:35;99465.47;;;12.63;100.00
50933;BME280;36921;49.006;9.292;2023-04-09T06:31:01;99466.28;;;14.13;100.00
50933;BME280;36921;49.006;9.292;2023-04-09T06:33:27;99453.97;;;17.81;100.00
50933;BME280;36921;49.006;9.292;2023-04-09T06:35:52;99443.75;;;21.53;66.97
50933;BME280;36921;49.006;9.292;2023-04-09T06:38:18;99450.69;;;24.34;53.31
50933;BME280;36921;49.006;9.292;2023-04-09T06:40:45;99454.19;;;25.95;45.39
50933;BME280;36921;49.006;9.292;2023-04-09T06:43:10;99446.09;;;26.92;44.05
50933;BME280;36921;49.006;9.292;2023-04-09T06:45:36;99451.16;;;27.32;42.33
50933;BME280;36921;49.006;9.292;2023-04-09T06:48:02;99451.34;;;26.06;41.50
50933;BME280;36921;49.006;9.292;2023-04-09T06:50:30;99462.78;;;26.33;42.72
50933;BME280;36921;49.006;9.292;2023-04-09T06:52:56;99461.78;;;25.79;42.40
50933;BME280;36921;49.006;9.292;2023-04-09T06:55:22;99453.13;;;25.91;41.71
50933;BME280;36921;49.006;9.292;2023-04-09T06:57:47;99458.25;;;25.04;42.24
50933;BME280;36921;49.006;9.292;2023-04-09T07:00:13;99461.44;;;24.25;42.93
50933;BME280;36921;49.006;9.292;2023-04-09T07:02:38;99463.38;;;24.30;42.04
50933;BME280;36921;49.006;9.292;2023-04-09T07:05:04;99456.13;;;24.75;41.96
50933;BME280;36921;49.006;9.292;2023-04-09T07:07:30;99466.63;;;23.71;42.93
50933;BME280;36921;49.006;9.292;2023-04-09T07:09:56;99454.13;;;25.01;41.51
50933;BME280;36921;49.006;9.292;2023-04-09T07:12:30;99462.56;;;24.04;42.86
50933;BME280;36921;49.006;9.292;2023-04-09T07:14:57;99465.28;;;23.78;44.24
50933;BME280;36921;49.006;9.292;2023-04-09T07:17:23;99463.38;;;23.84;42.31
50933;BME280;36921;49.006;9.292;2023-04-09T07:19:49;99463.56;;;26.05;40.64
50933;BME280;36921;49.006;9.292;2023-04-09T07:22:16;99472.50;;;27.13;39.26
50933;BME280;36921;49.006;9.292;2023-04-09T07:24:42;99474.97;;;27.15;36.92
50933;BME280;36921;49.006;9.292;2023-04-09T07:27:07;99478.00;;;26.01;38.06
50933;BME280;36921;49.006;9.292;2023-04-09T07:29:32;99480.44;;;24.93;37.90
50933;BME280;36921;49.006;9.292;2023-04-09T07:31:58;99484.34;;;25.63;36.21
50933;BME280;36921;49.006;9.292;2023-04-09T07:34:25;99473.94;;;25.39;36.73
50933;BME280;36921;49.006;9.292;2023-04-09T07:36:51;99471.53;;;25.12;37.58
50933;BME280;36921;49.006;9.292;2023-04-09T07:39:17;99479.09;;;24.76;37.77
50933;BME280;36921;49.006;9.292;2023-04-09T07:41:43;99477.75;;;24.06;38.44
50933;BME280;36921;49.006;9.292;2023-04-09T07:44:08;99480.81;;;24.25;38.82
50933;BME280;36921;49.006;9.292;2023-04-09T07:46:34;99479.94;;;23.84;38.11
50933;BME280;36921;49.006;9.292;2023-04-09T07:48:59;99478.31;;;23.93;38.28
50933;BME280;36921;49.006;9.292;2023-04-09T07:51:25;99475.41;;;25.21;37.06
50933;BME280;36921;49.006;9.292;2023-04-09T07:53:50;99472.25;;;25.38;36.33
50933;BME280;36921;49.006;9.292;2023-04-09T07:56:15;99471.88;;;24.95;36.50
50933;BME280;36921;49.006;9.292;2023-04-09T07:58:41;99472.69;;;24.96;36.02
50933;BME280;36921;49.006;9.292;2023-04-09T08:01:07;99479.69;;;23.96;37.63
50933;BME280;36921;49.006;9.292;2023-04-09T08:03:32;99472.81;;;24.09;37.46
50933;BME280;36921;49.006;9.292;2023-04-09T08:06:00;99472.75;;;24.70;36.04
50933;BME280;36921;49.006;9.292;2023-04-09T08:08:26;99480.25;;;24.28;35.42
50933;BME280;36921;49.006;9.292;2023-04-09T08:10:52;99483.56;;;24.25;35.57
50933;BME280;36921;49.006;9.292;2023-04-09T08:13:17;99483.59;;;24.56;35.33
50933;BME280;36921;49.006;9.292;2023-04-09T08:15:43;99482.41;;;24.88;35.57
50933;BME280;36921;49.006;9.292;2023-04-09T08:18:08;99477.78;;;25.43;34.69
50933;BME280;36921;49.006;9.292;2023-04-09T08:20:34;99477.69;;;25.58;35.37
50933;BME280;36921;49.006;9.292;2023-04-09T08:22:59;99483.34;;;26.27;34.79
50933;BME280;36921;49.006;9.292;2023-04-09T08:25:26;99486.78;;;26.77;34.03
50933;BME280;36921;49.006;9.292;2023-04-09T08:27:51;99483.22;;;26.42;33.87
50933;BME280;36921;49.006;9.292;2023-04-09T08:30:17;99485.38;;;26.45;33.33
50933;BME280;36921;49.006;9.292;2023-04-09T08:32:43;99483.97;;;26.48;33.75
50933;BME280;36921;49.006;9.292;2023-04-09T08:35:29;99488.66;;;26.23;33.41
50933;BME280;36921;49.006;9.292;2023-04-09T08:37:58;99491.78;;;27.28;33.10
50933;BME280;36921;49.006;9.292;2023-04-09T08:40:24;99493.13;;;26.54;32.78
50933;BME280;36921;49.006;9.292;2023-04-09T08:42:55;99491.72;;;27.34;32.02
50933;BME280;36921;49.006;9.292;2023-04-09T08:45:23;99492.41;;;26.96;32.69
50933;BME280;36921;49.006;9.292;2023-04-09T08:47:50;99490.78;;;25.97;33.42
50933;BME280;36921;49.006;9.292;2023-04-09T08:50:16;99483.78;;;27.65;32.79
50933;BME280;36921;49.006;9.292;2023-04-09T08:52:42;99484.75;;;28.31;31.23
50933;BME280;36921;49.006;9.292;2023-04-09T08:55:10;99490.09;;;27.03;32.60
50933;BME280;36921;49.006;9.292;2023-04-09T08:57:40;99488.34;;;26.88;32.45
50933;BME280;36921;49.006;9.292;2023-04-09T09:00:06;99490.94;;;27.90;32.34
50933;BME280;36921;49.006;9.292;2023-04-09T09:02:32;99496.03;;;29.00;29.86
50933;BME280;36921;49.006;9.292;2023-04-09T09:04:57;99498.19;;;27.91;31.05
50933;BME280;36921;49.006;9.292;2023-04-09T09:07:31;99494.03;;;28.59;30.51
50933;BME280;36921;49.006;9.292;2023-04-09T09:10:01;99486.63;;;28.35;30.98
50933;BME280;36921;49.006;9.292;2023-04-09T09:12:34;99495.88;;;27.55;30.89
50933;BME280;36921;49.006;9.292;2023-04-09T09:15:00;99498.72;;;28.91;29.74
50933;BME280;36921;49.006;9.292;2023-04-09T09:17:25;99495.19;;;30.72;27.90
50933;BME280;36921;49.006;9.292;2023-04-09T09:19:51;99491.41;;;27.97;28.72
50933;BME280;36921;49.006;9.292;2023-04-09T09:22:17;99498.00;;;22.81;34.01
50933;BME280;36921;49.006;9.292;2023-04-09T09:24:49;99509.69;;;18.99;40.18
50933;BME280;36921;49.006;9.292;2023-04-09T09:29:57;99513.78;;;16.05;47.18
50933;BME280;36921;49.006;9.292;2023-04-09T09:32:23;99518.22;;;16.06;47.52
50933;BME280;36921;49.006;9.292;2023-04-09T09:35:00;99513.72;;;15.87;48.19
50933;BME280;36921;49.006;9.292;2023-04-09T09:37:27;99508.50;;;16.35;46.99
50933;BME280;36921;49.006;9.292;2023-04-09T09:39:53;99507.63;;;16.60;45.72
50933;BME280;36921;49.006;9.292;2023-04-09T09:42:19;99481.44;;;17.14;42.94
50933;BME280;36921;49.006;9.292;2023-04-09T09:44:44;99503.16;;;16.91;44.69
50933;BME280;36921;49.006;9.292;2023-04-09T09:47:11;99504.03;;;16.41;45.68
50933;BME280;36921;49.006;9.292;2023-04-09T09:49:37;99504.03;;;16.16;45.92
50933;BME280;36921;49.006;9.292;2023-04-09T09:52:06;99504.03;;;16.84;43.31
50933;BME280;36921;49.006;9.292;2023-04-09T09:54:39;99504.81;;;17.10;43.80
50933;BME280;36921;49.006;9.292;2023-04-09T09:57:06;99498.19;;;19.55;39.80
50933;BME280;36921;49.006;9.292;2023-04-09T09:59:36;99494.41;;;21.08;38.62
50933;BME280;36921;49.006;9.292;2023-04-09T10:02:13;99493.47;;;19.96;38.96
50933;BME280;36921;49.006;9.292;2023-04-09T10:04:41;99500.75;;;18.92;40.65
50933;BME280;36921;49.006;9.292;2023-04-09T10:07:07;99483.72;;;22.15;37.87
50933;BME280;36921;49.006;9.292;2023-04-09T10:09:34;99463.91;;;25.48;32.95
50933;BME280;36921;49.006;9.292;2023-04-09T10:12:03;99480.81;;;24.25;33.70
50933;BME280;36921;49.006;9.292;2023-04-09T10:14:30;99480.69;;;25.67;32.36
50933;BME280;36921;49.006;9.292;2023-04-09T10:16:57;99484.72;;;27.12;30.86
50933;BME280;36921;49.006;9.292;2023-04-09T10:19:22;99478.66;;;26.22;30.69
50933;BME280;36921;49.006;9.292;2023-04-09T10:22:04;99472.53;;;25.91;30.91
50933;BME280;36921;49.006;9.292;2023-04-09T10:24:34;99461.41;;;23.69;32.66
50933;BME280;36921;49.006;9.292;2023-04-09T10:27:26;99490.75;;;20.12;36.11
50933;BME280;36921;49.006;9.292;2023-04-09T10:29:52;99496.09;;;18.57;38.09
50933;BME280;36921;49.006;9.292;2023-04-09T10:32:22;99494.91;;;19.00;39.01
50933;BME280;36921;49.006;9.292;2023-04-09T10:34:50;99474.13;;;19.45;38.28
50933;BME280;36921;49.006;9.292;2023-04-09T10:37:21;99479.78;;;18.86;38.61
50933;BME280;36921;49.006;9.292;2023-04-09T10:39:47;99483.38;;;19.27;38.10
50933;BME280;36921;49.006;9.292;2023-04-09T10:42:17;99484.09;;;19.63;38.60
50933;BME280;36921;49.006;9.292;2023-04-09T10:44:42;99471.13;;;19.46;38.71
50933;BME280;36921;49.006;9.292;2023-04-09T10:47:09;99476.16;;;19.95;38.91
50933;BME280;36921;49.006;9.292;2023-04-09T10:49:41;99447.91;;;23.93;34.75
50933;BME280;36921;49.006;9.292;2023-04-09T10:52:10;99463.84;;;27.20;30.12
50933;BME280;36921;49.006;9.292;2023-04-09T10:59:31;99447.31;;;30.11;27.33
50933;BME280;36921;49.006;9.292;2023-04-09T11:01:56;99458.00;;;28.49;27.61
50933;BME280;36921;49.006;9.292;2023-04-09T11:04:28;99460.63;;;26.83;28.00
50933;BME280;36921;49.006;9.292;2023-04-09T11:06:58;99456.19;;;26.82;27.42
50933;BME280;36921;49.006;9.292;2023-04-09T11:09:25;99451.09;;;26.89;27.56
50933;BME280;36921;49.006;9.292;2023-04-09T11:11:52;99444.69;;;27.56;27.09
50933;BME280;36921;49.006;9.292;2023-04-09T11:14:20;99452.03;;;26.56;27.24
50933;BME280;36921;49.006;9.292;2023-04-09T11:16:47;99426.81;;;25.84;28.05
50933;BME280;36921;49.006;9.292;2023-04-09T11:19:13;99442.75;;;25.08;28.95
50933;BME280;36921;49.006;9.292;2023-04-09T11:21:41;99449.75;;;23.57;30.38
50933;BME280;36921;49.006;9.292;2023-04-09T11:24:11;99437.06;;;23.56;30.39
50933;BME280;36921;49.006;9.292;2023-04-09T11:26:37;99450.84;;;22.83;30.97
50933;BME280;36921;49.006;9.292;2023-04-09T11:29:08;99441.00;;;22.97;31.51
50933;BME280;36921;49.006;9.292;2023-04-09T11:31:35;99437.50;;;25.06;29.68
50933;BME280;36921;49.006;9.292;2023-04-09T11:34:00;99442.06;;;23.69;30.19
50933;BME280;36921;49.006;9.292;2023-04-09T11:36:26;99444.13;;;23.11;31.25
50933;BME280;36921;49.006;9.292;2023-04-09T11:38:52;99453.34;;;19.78;34.71
50933;BME280;36921;49.006;9.292;2023-04-09T11:41:37;99442.03;;;18.06;37.48
50933;BME280;36921;49.006;9.292;2023-04-09T11:44:03;99445.44;;;17.29;38.21
50933;BME280;36921;49.006;9.292;2023-04-09T11:46:32;99449.25;;;16.98;39.66
50933;BME280;36921;49.006;9.292;2023-04-09T11:48:58;99420.31;;;18.87;37.19
50933;BME280;36921;49.006;9.292;2023-04-09T11:51:25;99418.84;;;20.93;34.46
50933;BME280;36921;49.006;9.292;2023-04-09T11:53:51;99419.50;;;18.27;36.11
50933;BME280;36921;49.006;9.292;2023-04-09T11:56:16;99440.38;;;20.57;34.29
50933;BME280;36921;49.006;9.292;2023-04-09T11:58:46;99431.06;;;23.79;30.16
50933;BME280;36921;49.006;9.292;2023-04-09T12:01:12;99418.50;;;23.36;31.04
50933;BME280;36921;49.006;9.292;2023-04-09T12:03:37;99433.13;;;21.94;32.86
50933;BME280;36921;49.006;9.292;2023-04-09T12:06:04;99430.31;;;23.16;32.19
50933;BME280;36921;49.006;9.292;2023-04-09T12:08:32;99426.09;;;23.76;31.70
50933;BME280;36921;49.006;9.292;2023-04-09T12:11:11;99426.53;;;24.76;30.32
50933;BME280;36921;49.006;9.292;2023-04-09T12:13:37;99419.44;;;25.69;29.03
50933;BME280;36921;49.006;9.292;2023-04-09T12:16:07;99422.34;;;22.67;31.77
50933;BME280;36921;49.006;9.292;2023-04-09T12:18:35;99447.47;;;20.03;34.60
50933;BME280;36921;49.006;9.292;2023-04-09T12:21:01;99443.31;;;21.93;33.59
50933;BME280;36921;49.006;9.292;2023-04-09T12:23:26;99428.22;;;23.54;31.12
50933;BME280;36921;49.006;9.292;2023-04-09T12:25:52;99407.00;;;24.11;31.42
50933;BME280;36921;49.006;9.292;2023-04-09T12:28:19;99425.19;;;23.66;32.11
50933;BME280;36921;49.006;9.292;2023-04-09T12:30:44;99423.78;;;22.00;33.78
50933;BME280;36921;49.006;9.292;2023-04-09T12:33:10;99436.47;;;21.19;34.69
50933;BME280;36921;49.006;9.292;2023-04-09T12:35:35;99442.97;;;19.97;36.43
50933;BME280;36921;49.006;9.292;2023-04-09T12:38:02;99431.59;;;19.31;36.25
50933;BME280;36921;49.006;9.292;2023-04-09T12:40:29;99441.91;;;17.70;38.29
50933;BME280;36921;49.006;9.292;2023-04-09T12:42:54;99429.19;;;16.49;39.75
50933;BME280;36921;49.006;9.292;2023-04-09T12:45:20;99404.97;;;15.90;40.84
50933;BME280;36921;49.006;9.292;2023-04-09T12:47:46;99435.34;;;16.19;40.88
50933;BME280;36921;49.006;9.292;2023-04-09T12:50:13;99425.84;;;16.47;40.97
50933;BME280;36921;49.006;9.292;2023-04-09T12:52:39;99424.34;;;16.51;40.94
50933;BME280;36921;49.006;9.292;2023-04-09T12:55:05;99419.03;;;16.56;41.04
50933;BME280;36921;49.006;9.292;2023-04-09T12:57:31;99414.03;;;16.09;41.76
50933;BME280;36921;49.006;9.292;2023-04-09T12:59:58;99416.94;;;15.89;41.27
50933;BME280;36921;49.006;9.292;2023-04-09T13:02:23;99413.66;;;16.24;41.76
50933;BME280;36921;49.006;9.292;2023-04-09T13:04:49;99408.63;;;16.64;41.18
50933;BME280;36921;49.006;9.292;2023-04-09T13:07:15;99401.56;;;16.94;40.84
50933;BME280;36921;49.006;9.292;2023-04-09T13:09:43;99397.84;;;16.51;41.17
50933;BME280;36921;49.006;9.292;2023-04-09T13:12:09;99404.94;;;16.77;40.85
50933;BME280;36921;49.006;9.292;2023-04-09T13:14:37;99389.41;;;16.71;42.28